sensor_id;sensor_type;location;lat;lon;timestamp;pressure;altitude;pressure_sealevel;temperature;humidity
37132;BME280;23035;50.032;21.978;2024-03-23T00:54:49;64617.38;;;-5.28;100.00
37132;BME280;23035;50.032;21.978;2024-03-23T00:59:52;64620.84;;;-5.29;100.00
37132;BME280;23035;50.032;21.978;2024-03-23T01:04:55;64619.13;;;-5.33;100.00
37132;BME280;23035;50.032;21.978;2024-03-23T01:09:59;64665.28;;;-4.86;100.00
37132;BME280;23035;50.032;21.978;2024-03-23T01:15:02;64616.75;;;-5.31;100.00
37132;BME280;23035;50.032;21.978;2024-03-23T01:20:06;64588.16;;;-5.58;100.00
37132;BME280;23035;50.032;21.978;2024-03-23T01:25:11;64609.84;;;-5.37;100.00
37132;BME280;23035;50.032;21.978;2024-03-23T01:30:14;64601.38;;;-5.45;100.00
37132;BME280;23035;50.032;21.978;2024-03-23T01:35:17;64622.53;;;-5.25;100.00
37132;BME280;23035;50.032;21.978;2024-03-23T01:40:21;64614.91;;;-5.37;100.00
37132;BME280;23035;50.032;21.978;2024-03-23T01:45:24;64608.13;;;-5.41;100.00
37132;BME280;23035;50.032;21.978;2024-03-23T01:50:27;64643.88;;;-5.12;100.00
37132;BME280;23035;50.032;21.978;2024-03-23T01:55:33;64630.66;;;-5.25;100.00
37132;BME280;23035;50.032;21.978;2024-03-23T02:00:40;64631.84;;;-5.21;100.00
37132;BME280;23035;50.032;21.978;2024-03-23T02:05:43;64633.97;;;-5.19;100.00
37132;BME280;23035;50.032;21.978;2024-03-23T02:10:48;64628.66;;;-5.24;100.00
37132;BME280;23035;50.032;21.978;2024-03-23T02:15:51;64642.00;;;-5.09;100.00
37132;BME280;23035;50.032;21.978;2024-03-23T02:20:54;64641.72;;;-5.04;100.00
37132;BME280;23035;50.032;21.978;2024-03-23T02:25:58;64634.59;;;-5.16;100.00
37132;BME280;23035;50.032;21.978;2024-03-23T02:31:01;64612.91;;;-5.37;100.00
37132;BME280;23035;50.032;21.978;2024-03-23T02:36:06;64627.06;;;-5.26;100.00
37132;BME280;23035;50.032;21.978;2024-03-23T02:41:11;64613.97;;;-5.36;100.00
37132;BME280;23035;50.032;21.978;2024-03-23T02:46:13;64593.03;;;-5.51;100.00
37132;BME280;23035;50.032;21.978;2024-03-23T02:51:16;64596.94;;;-5.55;100.00
37132;BME280;23035;50.032;21.978;2024-03-23T02:56:21;64589.22;;;-5.57;100.00
37132;BME280;23035;50.032;21.978;2024-03-23T03:01:23;64603.38;;;-5.46;100.00
37132;BME280;23035;50.032;21.978;2024-03-23T03:06:27;64658.41;;;-4.93;100.00
37132;BME280;23035;50.032;21.978;2024-03-23T03:11:32;64628.78;;;-5.22;100.00
37132;BME280;23035;50.032;21.978;2024-03-23T03:16:35;64621.25;;;-5.31;100.00
37132;BME280;23035;50.032;21.978;2024-03-23T03:21:38;64619.78;;;-5.30;100.00
37132;BME280;23035;50.032;21.978;2024-03-23T03:26:42;64670.59;;;-4.81;100.00
37132;BME280;23035;50.032;21.978;2024-03-23T03:31:45;64661.28;;;-4.85;100.00
37132;BME280;23035;50.032;21.978;2024-03-23T03:36:48;64609.75;;;-5.40;100.00
37132;BME280;23035;50.032;21.978;2024-03-23T03:41:52;64666.88;;;-4.85;100.00
37132;BME280;23035;50.032;21.978;2024-03-23T03:46:55;64643.06;;;-5.08;100.00
37132;BME280;23035;50.032;21.978;2024-03-23T03:51:58;64597.56;;;-5.52;100.00
37132;BME280;23035;50.032;21.978;2024-03-23T03:57:04;64617.44;;;-5.37;100.00
37132;BME280;23035;50.032;21.978;2024-03-23T04:02:07;64651.94;;;-5.02;100.00
37132;BME280;23035;50.032;21.978;2024-03-23T04:07:10;64620.31;;;-5.30;100.00
37132;BME280;23035;50.032;21.978;2024-03-23T04:12:14;64623.78;;;-5.31;100.00
37132;BME280;23035;50.032;21.978;2024-03-23T04:17:17;64665.28;;;-4.86;100.00
37132;BME280;23035;50.032;21.978;2024-03-23T04:22:19;64612.81;;;-5.39;100.00
37132;BME280;23035;50.032;21.978;2024-03-23T04:27:24;64644.13;;;-5.07;100.00
37132;BME280;23035;50.032;21.978;2024-03-23T04:32:27;64624.31;;;-5.31;100.00
37132;BME280;23035;50.032;21.978;2024-03-23T04:37:30;64577.06;;;-5.69;100.00
37132;BME280;23035;50.032;21.978;2024-03-23T04:42:34;64596.41;;;-5.55;100.00
37132;BME280;23035;50.032;21.978;2024-03-23T04:47:37;64614.50;;;-5.35;100.00
37132;BME280;23035;50.032;21.978;2024-03-23T04:52:40;64616.59;;;-5.33;100.00
37132;BME280;23035;50.032;21.978;2024-03-23T04:57:46;64633.75;;;-5.12;100.00
37132;BME280;23035;50.032;21.978;2024-03-23T05:02:49;64667.81;;;-4.86;100.00
37132;BME280;23035;50.032;21.978;2024-03-23T05:07:54;64645.94;;;-5.00;100.00
37132;BME280;23035;50.032;21.978;2024-03-23T05:12:58;64712.28;;;-4.44;100.00
37132;BME280;23035;50.032;21.978;2024-03-23T05:18:01;64667.19;;;-4.89;100.00
37132;BME280;23035;50.032;21.978;2024-03-23T05:23:04;64668.47;;;-4.83;100.00
37132;BME280;23035;50.032;21.978;2024-03-23T05:28:08;64711.88;;;-4.42;100.00
37132;BME280;23035;50.032;21.978;2024-03-23T05:33:12;64775.97;;;-3.80;100.00
37132;BME280;23035;50.032;21.978;2024-03-23T05:38:14;64784.84;;;-3.74;100.00
37132;BME280;23035;50.032;21.978;2024-03-23T05:43:19;64858.00;;;-3.04;100.00
37132;BME280;23035;50.032;21.978;2024-03-23T05:48:22;64851.75;;;-3.07;100.00
37132;BME280;23035;50.032;21.978;2024-03-23T05:53:25;64826.94;;;-3.29;100.00
37132;BME280;23035;50.032;21.978;2024-03-23T05:58:29;64884.50;;;-2.78;100.00
37132;BME280;23035;50.032;21.978;2024-03-23T06:03:32;64895.22;;;-2.66;100.00
37132;BME280;23035;50.032;21.978;2024-03-23T06:08:36;64837.97;;;-3.21;100.00
37132;BME280;23035;50.032;21.978;2024-03-23T06:13:41;64872.53;;;-2.85;100.00
37132;BME280;23035;50.032;21.978;2024-03-23T06:18:44;64840.09;;;-3.19;100.00
37132;BME280;23035;50.032;21.978;2024-03-23T06:23:47;64901.16;;;-2.57;100.00
37132;BME280;23035;50.032;21.978;2024-03-23T06:28:54;64890.97;;;-2.70;100.00
37132;BME280;23035;50.032;21.978;2024-03-23T06:33:57;64905.41;;;-2.53;100.00
37132;BME280;23035;50.032;21.978;2024-03-23T06:39:00;64869.47;;;-2.85;100.00
37132;BME280;23035;50.032;21.978;2024-03-23T06:44:05;64902.53;;;-2.61;100.00
37132;BME280;23035;50.032;21.978;2024-03-23T06:49:08;64900.44;;;-2.63;100.00
37132;BME280;23035;50.032;21.978;2024-03-23T06:54:11;64869.78;;;-2.90;100.00
37132;BME280;23035;50.032;21.978;2024-03-23T06:59:15;64863.63;;;-2.91;100.00
37132;BME280;23035;50.032;21.978;2024-03-23T07:04:18;64824.72;;;-3.33;100.00
37132;BME280;23035;50.032;21.978;2024-03-23T07:09:21;64865.53;;;-2.94;100.00
37132;BME280;23035;50.032;21.978;2024-03-23T07:14:29;64906.38;;;-2.55;100.00
37132;BME280;23035;50.032;21.978;2024-03-23T07:19:32;64977.88;;;-1.89;100.00
37132;BME280;23035;50.032;21.978;2024-03-23T07:24:35;64937.78;;;-2.22;100.00
37132;BME280;23035;50.032;21.978;2024-03-23T07:29:45;64956.34;;;-2.05;100.00
37132;BME280;23035;50.032;21.978;2024-03-23T07:34:49;64959.09;;;-1.99;100.00
37132;BME280;23035;50.032;21.978;2024-03-23T07:45:24;64884.09;;;-2.76;100.00
37132;BME280;23035;50.032;21.978;2024-03-23T07:50:28;64959.31;;;-2.07;100.00
37132;BME280;23035;50.032;21.978;2024-03-23T07:55:30;64936.63;;;-2.26;100.00
37132;BME280;23035;50.032;21.978;2024-03-23T08:00:35;64926.63;;;-2.33;100.00
37132;BME280;23035;50.032;21.978;2024-03-23T08:05:38;64908.69;;;-2.48;100.00
37132;BME280;23035;50.032;21.978;2024-03-23T08:10:48;64935.53;;;-2.27;100.00
37132;BME280;23035;50.032;21.978;2024-03-23T08:15:56;64924.09;;;-2.33;100.00
37132;BME280;23035;50.032;21.978;2024-03-23T08:21:00;64948.16;;;-2.17;100.00
37132;BME280;23035;50.032;21.978;2024-03-23T08:26:04;64901.59;;;-2.60;100.00
37132;BME280;23035;50.032;21.978;2024-03-23T08:31:11;64989.16;;;-1.76;100.00
37132;BME280;23035;50.032;21.978;2024-03-23T08:36:14;65062.94;;;-1.05;100.00
37132;BME280;23035;50.032;21.978;2024-03-23T08:41:18;65152.22;;;-0.19;100.00
37132;BME280;23035;50.032;21.978;2024-03-23T08:46:22;65051.78;;;-1.16;100.00
37132;BME280;23035;50.032;21.978;2024-03-23T08:51:27;65088.31;;;-0.83;100.00
37132;BME280;23035;50.032;21.978;2024-03-23T08:56:30;65196.84;;;0.23;100.00
37132;BME280;23035;50.032;21.978;2024-03-23T09:01:35;65174.19;;;0.07;97.64
37132;BME280;23035;50.032;21.978;2024-03-23T09:06:39;65258.56;;;0.82;93.88
37132;BME280;23035;50.032;21.978;2024-03-23T09:11:42;65169.63;;;-0.05;99.03
37132;BME280;23035;50.032;21.978;2024-03-23T09:16:49;65112.44;;;-0.55;100.00
37132;BME280;23035;50.032;21.978;2024-03-23T09:21:52;65095.34;;;-0.74;100.00
37132;BME280;23035;50.032;21.978;2024-03-23T09:26:55;65011.97;;;-1.54;100.00
37132;BME280;23035;50.032;21.978;2024-03-23T09:32:04;64987.31;;;-1.82;100.00
37132;BME280;23035;50.032;21.978;2024-03-23T09:37:13;65016.84;;;-1.47;100.00
37132;BME280;23035;50.032;21.978;2024-03-23T09:42:18;65059.75;;;-1.08;100.00
37132;BME280;23035;50.032;21.978;2024-03-23T09:47:23;65130.94;;;-0.40;100.00
37132;BME280;23035;50.032;21.978;2024-03-23T09:52:30;65080.47;;;-0.88;100.00
37132;BME280;23035;50.032;21.978;2024-03-23T09:57:33;65073.78;;;-0.90;100.00
37132;BME280;23035;50.032;21.978;2024-03-23T10:02:37;65120.72;;;-0.52;100.00
37132;BME280;23035;50.032;21.978;2024-03-23T10:07:41;65108.63;;;-0.61;100.00
37132;BME280;23035;50.032;21.978;2024-03-23T10:12:46;65155.50;;;-0.14;100.00
37132;BME280;23035;50.032;21.978;2024-03-23T10:17:53;65168.16;;;-0.04;100.00
37132;BME280;23035;50.032;21.978;2024-03-23T10:22:57;65174.63;;;0.05;100.00
37132;BME280;23035;50.032;21.978;2024-03-23T10:28:00;65064.63;;;-1.01;100.00
37132;BME280;23035;50.032;21.978;2024-03-23T10:33:09;65124.56;;;-0.46;100.00
37132;BME280;23035;50.032;21.978;2024-03-23T10:38:17;65171.97;;;0.02;100.00
37132;BME280;23035;50.032;21.978;2024-03-23T10:43:20;65224.09;;;0.52;98.56
37132;BME280;23035;50.032;21.978;2024-03-23T10:48:25;65117.66;;;-0.52;100.00
37132;BME280;23035;50.032;21.978;2024-03-23T10:53:32;65129.66;;;-0.46;100.00
37132;BME280;23035;50.032;21.978;2024-03-23T10:58:40;65119.13;;;-0.53;100.00
37132;BME280;23035;50.032;21.978;2024-03-23T11:03:46;65145.94;;;-0.23;100.00
37132;BME280;23035;50.032;21.978;2024-03-23T11:08:50;65117.13;;;-0.53;100.00
37132;BME280;23035;50.032;21.978;2024-03-23T11:13:57;65157.94;;;-0.16;100.00
37132;BME280;23035;50.032;21.978;2024-03-23T11:19:34;65133.47;;;-0.40;100.00
37132;BME280;23035;50.032;21.978;2024-03-23T11:24:38;65120.31;;;-0.50;100.00
37132;BME280;23035;50.032;21.978;2024-03-23T11:29:41;65064.53;;;-1.03;100.00
37132;BME280;23035;50.032;21.978;2024-03-23T11:34:53;65095.78;;;-0.76;100.00
37132;BME280;23035;50.032;21.978;2024-03-23T11:39:56;65131.88;;;-0.41;100.00
37132;BME280;23035;50.032;21.978;2024-03-23T11:45:07;65157.94;;;-0.16;100.00
37132;BME280;23035;50.032;21.978;2024-03-23T11:50:20;65179.84;;;0.07;100.00
37132;BME280;23035;50.032;21.978;2024-03-23T11:55:23;65147.50;;;-0.21;100.00
37132;BME280;23035;50.032;21.978;2024-03-23T12:00:27;65212.81;;;0.39;100.00
37132;BME280;23035;50.032;21.978;2024-03-23T12:05:33;65192.59;;;0.19;100.00
37132;BME280;23035;50.032;21.978;2024-03-23T12:10:36;65221.22;;;0.44;99.68
37132;BME280;23035;50.032;21.978;2024-03-23T12:15:42;65213.88;;;0.40;99.80
37132;BME280;23035;50.032;21.978;2024-03-23T12:20:47;65218.03;;;0.41;100.00
37132;BME280;23035;50.032;21.978;2024-03-23T12:25:50;65211.75;;;0.38;100.00
37132;BME280;23035;50.032;21.978;2024-03-23T12:30:53;65201.97;;;0.23;100.00
37132;BME280;23035;50.032;21.978;2024-03-23T12:35:58;65201.75;;;0.31;100.00
37132;BME280;23035;50.032;21.978;2024-03-23T12:41:01;65252.28;;;0.79;100.00
37132;BME280;23035;50.032;21.978;2024-03-23T12:46:06;65311.31;;;1.35;97.59
37132;BME280;23035;50.032;21.978;2024-03-23T12:51:11;65246.94;;;0.74;100.00
37132;BME280;23035;50.032;21.978;2024-03-23T12:56:14;65245.88;;;0.73;100.00
37132;BME280;23035;50.032;21.978;2024-03-23T13:01:17;65207.59;;;0.36;100.00
37132;BME280;23035;50.032;21.978;2024-03-23T13:06:22;65221.31;;;0.47;100.00
37132;BME280;23035;50.032;21.978;2024-03-23T13:11:27;65167.19;;;-0.03;100.00
37132;BME280;23035;50.032;21.978;2024-03-23T13:16:32;65192.59;;;0.19;100.00
37132;BME280;23035;50.032;21.978;2024-03-23T13:21:36;65264.50;;;0.91;100.00
37132;BME280;23035;50.032;21.978;2024-03-23T13:26:39;65253.44;;;0.82;100.00
37132;BME280;23035;50.032;21.978;2024-03-23T13:31:43;65140.94;;;-0.33;100.00
37132;BME280;23035;50.032;21.978;2024-03-23T13:36:47;65149.88;;;-0.26;100.00
37132;BME280;23035;50.032;21.978;2024-03-23T13:41:50;65123.72;;;-0.42;100.00
37132;BME280;23035;50.032;21.978;2024-03-23T13:46:53;65159.22;;;-0.10;100.00
37132;BME280;23035;50.032;21.978;2024-03-23T13:51:59;65170.28;;;-0.02;100.00
37132;BME280;23035;50.032;21.978;2024-03-23T13:57:02;65153.81;;;-0.18;100.00
37132;BME280;23035;50.032;21.978;2024-03-23T14:02:05;65202.69;;;0.29;100.00
37132;BME280;23035;50.032;21.978;2024-03-23T14:07:10;65236.41;;;0.66;100.00
37132;BME280;23035;50.032;21.978;2024-03-23T14:12:13;65221.31;;;0.47;100.00
37132;BME280;23035;50.032;21.978;2024-03-23T14:17:16;65176.03;;;0.01;100.00
37132;BME280;23035;50.032;21.978;2024-03-23T14:22:21;65238.25;;;0.61;100.00
37132;BME280;23035;50.032;21.978;2024-03-23T14:27:24;65171.31;;;-0.01;100.00
37132;BME280;23035;50.032;21.978;2024-03-23T14:32:28;65181.22;;;0.04;100.00
37132;BME280;23035;50.032;21.978;2024-03-23T14:37:36;65172.41;;;0.00;100.00
37132;BME280;23035;50.032;21.978;2024-03-23T14:42:39;65135.50;;;-0.40;100.00
37132;BME280;23035;50.032;21.978;2024-03-23T14:47:43;65172.41;;;0.00;100.00
37132;BME280;23035;50.032;21.978;2024-03-23T14:52:48;65169.22;;;-0.03;100.00
37132;BME280;23035;50.032;21.978;2024-03-23T14:57:52;65186.84;;;0.16;100.00
37132;BME280;23035;50.032;21.978;2024-03-23T15:02:56;65216.00;;;0.42;100.00
37132;BME280;23035;50.032;21.978;2024-03-23T15:08:02;65188.34;;;0.15;100.00
37132;BME280;23035;50.032;21.978;2024-03-23T15:13:05;65188.34;;;0.15;100.00
37132;BME280;23035;50.032;21.978;2024-03-23T15:18:08;65136.69;;;-0.37;100.00
37132;BME280;23035;50.032;21.978;2024-03-23T15:23:12;65120.31;;;-0.50;100.00
37132;BME280;23035;50.032;21.978;2024-03-23T15:28:15;65105.09;;;-0.60;100.00
37132;BME280;23035;50.032;21.978;2024-03-23T15:33:18;65125.63;;;-0.45;100.00
37132;BME280;23035;50.032;21.978;2024-03-23T15:38:23;65139.34;;;-0.34;100.00
37132;BME280;23035;50.032;21.978;2024-03-23T15:43:26;65137.84;;;-0.33;100.00
37132;BME280;23035;50.032;21.978;2024-03-23T15:48:30;65125.72;;;-0.42;100.00
37132;BME280;23035;50.032;21.978;2024-03-23T15:53:35;65110.97;;;-0.54;100.00
37132;BME280;23035;50.032;21.978;2024-03-23T15:58:38;65091.72;;;-0.75;100.00
37132;BME280;23035;50.032;21.978;2024-03-23T16:03:41;65109.81;;;-0.57;100.00
37132;BME280;23035;50.032;21.978;2024-03-23T16:09:04;65122.97;;;-0.47;100.00
37132;BME280;23035;50.032;21.978;2024-03-23T16:14:11;65095.88;;;-0.73;100.00
37132;BME280;23035;50.032;21.978;2024-03-23T16:19:14;65116.06;;;-0.54;100.00
37132;BME280;23035;50.032;21.978;2024-03-23T16:24:19;65112.44;;;-0.55;100.00
37132;BME280;23035;50.032;21.978;2024-03-23T16:29:22;65093.94;;;-0.70;100.00
37132;BME280;23035;50.032;21.978;2024-03-23T16:34:25;65084.81;;;-0.81;100.00
37132;BME280;23035;50.032;21.978;2024-03-23T16:39:30;65090.13;;;-0.76;100.00
37132;BME280;23035;50.032;21.978;2024-03-23T16:44:33;65095.25;;;-0.76;100.00
37132;BME280;23035;50.032;21.978;2024-03-23T16:49:36;65064.00;;;-1.04;100.00
37132;BME280;23035;50.032;21.978;2024-03-23T16:54:41;65018.13;;;-1.53;100.00
37132;BME280;23035;50.032;21.978;2024-03-23T16:59:45;64929.81;;;-2.30;100.00
37132;BME280;23035;50.032;21.978;2024-03-23T17:04:48;64862.78;;;-2.99;100.00
37132;BME280;23035;50.032;21.978;2024-03-23T17:09:52;64832.03;;;-3.29;100.00
37132;BME280;23035;50.032;21.978;2024-03-23T17:14:56;64823.13;;;-3.35;100.00
37132;BME280;23035;50.032;21.978;2024-03-23T17:19:59;64792.81;;;-3.66;100.00
37132;BME280;23035;50.032;21.978;2024-03-23T17:25:08;64755.94;;;-3.97;100.00
37132;BME280;23035;50.032;21.978;2024-03-23T17:30:30;64773.97;;;-3.80;100.00
37132;BME280;23035;50.032;21.978;2024-03-23T17:35:33;64790.25;;;-3.66;100.00
37132;BME280;23035;50.032;21.978;2024-03-23T17:40:37;64794.53;;;-3.62;100.00
37132;BME280;23035;50.032;21.978;2024-03-23T17:45:40;64776.91;;;-3.82;100.00
37132;BME280;23035;50.032;21.978;2024-03-23T17:51:00;64755.19;;;-4.02;100.00
37132;BME280;23035;50.032;21.978;2024-03-23T17:56:08;64773.19;;;-3.85;100.00
37132;BME280;23035;50.032;21.978;2024-03-23T18:01:11;64756.06;;;-3.94;100.00
37132;BME280;23035;50.032;21.978;2024-03-23T18:06:14;64735.19;;;-4.19;100.00
37132;BME280;23035;50.032;21.978;2024-03-23T18:11:19;64727.53;;;-4.31;100.00
37132;BME280;23035;50.032;21.978;2024-03-23T18:16:22;64679.56;;;-4.73;100.00
37132;BME280;23035;50.032;21.978;2024-03-23T18:21:25;64671.66;;;-4.80;100.00
37132;BME280;23035;50.032;21.978;2024-03-23T18:26:29;64700.22;;;-4.53;100.00
37132;BME280;23035;50.032;21.978;2024-03-23T18:31:33;64688.56;;;-4.64;100.00
37132;BME280;23035;50.032;21.978;2024-03-23T18:36:36;64747.25;;;-4.10;100.00
37132;BME280;23035;50.032;21.978;2024-03-23T18:41:41;64736.88;;;-4.15;100.00
37132;BME280;23035;50.032;21.978;2024-03-23T18:46:44;64741.94;;;-4.15;100.00
37132;BME280;23035;50.032;21.978;2024-03-23T18:51:47;64759.53;;;-3.96;100.00
37132;BME280;23035;50.032;21.978;2024-03-23T18:56:52;64797.69;;;-3.59;100.00
37132;BME280;23035;50.032;21.978;2024-03-23T19:01:55;64780.63;;;-3.78;100.00
37132;BME280;23035;50.032;21.978;2024-03-23T19:06:58;64766.84;;;-3.91;100.00
37132;BME280;23035;50.032;21.978;2024-03-23T19:12:03;64764.31;;;-3.91;100.00
37132;BME280;23035;50.032;21.978;2024-03-23T19:17:06;64759.44;;;-3.98;100.00
37132;BME280;23035;50.032;21.978;2024-03-23T19:22:10;64745.34;;;-4.07;100.00
37132;BME280;23035;50.032;21.978;2024-03-23T19:27:15;64780.63;;;-3.78;100.00
37132;BME280;23035;50.032;21.978;2024-03-23T19:32:28;64690.28;;;-4.60;100.00
37132;BME280;23035;50.032;21.978;2024-03-23T19:37:31;64609.09;;;-5.43;100.00
37132;BME280;23035;50.032;21.978;2024-03-23T19:42:40;64536.13;;;-6.13;100.00
37132;BME280;23035;50.032;21.978;2024-03-23T19:47:43;64497.53;;;-6.50;100.00
37132;BME280;23035;50.032;21.978;2024-03-23T19:52:48;64487.63;;;-6.57;100.00
37132;BME280;23035;50.032;21.978;2024-03-23T19:57:53;64453.06;;;-6.96;100.00
37132;BME280;23035;50.032;21.978;2024-03-23T20:02:56;64434.25;;;-7.09;100.00
37132;BME280;23035;50.032;21.978;2024-03-23T20:07:59;64392.03;;;-7.49;100.00
37132;BME280;23035;50.032;21.978;2024-03-23T20:13:04;64386.09;;;-7.58;100.00
37132;BME280;23035;50.032;21.978;2024-03-23T20:18:08;64378.81;;;-7.62;100.00
37132;BME280;23035;50.032;21.978;2024-03-23T20:23:11;64371.31;;;-7.72;100.00
37132;BME280;23035;50.032;21.978;2024-03-23T20:28:16;64356.53;;;-7.86;100.00
37132;BME280;23035;50.032;21.978;2024-03-23T20:33:21;64345.34;;;-7.99;100.00
37132;BME280;23035;50.032;21.978;2024-03-23T20:38:24;64342.28;;;-8.00;100.00
37132;BME280;23035;50.032;21.978;2024-03-23T20:43:28;64331.22;;;-8.11;100.00
37132;BME280;23035;50.032;21.978;2024-03-23T20:48:32;64341.22;;;-8.01;100.00
37132;BME280;23035;50.032;21.978;2024-03-23T20:53:38;64336.59;;;-8.03;100.00
37132;BME280;23035;50.032;21.978;2024-03-23T20:58:43;64308.75;;;-8.27;100.00
37132;BME280;23035;50.032;21.978;2024-03-23T21:03:46;64317.50;;;-8.24;100.00
37132;BME280;23035;50.032;21.978;2024-03-23T21:08:49;64313.25;;;-8.28;100.00
37132;BME280;23035;50.032;21.978;2024-03-23T21:13:54;64288.63;;;-8.49;100.00
37132;BME280;23035;50.032;21.978;2024-03-23T21:18:58;64322.22;;;-8.19;100.00
37132;BME280;23035;50.032;21.978;2024-03-23T21:24:01;64274.50;;;-8.60;100.00
37132;BME280;23035;50.032;21.978;2024-03-23T21:29:08;64285.44;;;-8.52;100.00
37132;BME280;23035;50.032;21.978;2024-03-23T21:34:11;64292.97;;;-8.43;100.00
37132;BME280;23035;50.032;21.978;2024-03-23T21:39:14;64287.56;;;-8.50;100.00
37132;BME280;23035;50.032;21.978;2024-03-23T21:44:21;64263.94;;;-8.71;100.00
37132;BME280;23035;50.032;21.978;2024-03-23T21:49:25;64273.31;;;-8.64;100.00
37132;BME280;23035;50.032;21.978;2024-03-23T21:54:28;64252.50;;;-8.89;100.00
37132;BME280;23035;50.032;21.978;2024-03-23T21:59:40;64225.22;;;-9.13;100.00
37132;BME280;23035;50.032;21.978;2024-03-23T22:04:44;64228.25;;;-9.12;100.00
37132;BME280;23035;50.032;21.978;2024-03-23T22:09:48;64239.44;;;-8.99;100.00
37132;BME280;23035;50.032;21.978;2024-03-23T22:14:52;64221.00;;;-9.17;100.00
37132;BME280;23035;50.032;21.978;2024-03-23T22:19:55;64205.06;;;-9.35;100.00
37132;BME280;23035;50.032;21.978;2024-03-23T22:25:00;64183.72;;;-9.50;100.00
37132;BME280;23035;50.032;21.978;2024-03-23T22:30:06;64195.31;;;-9.39;100.00
37132;BME280;23035;50.032;21.978;2024-03-23T22:35:09;64203.72;;;-9.31;100.00
37132;BME280;23035;50.032;21.978;2024-03-23T22:40:12;64231.13;;;-9.05;100.00
37132;BME280;23035;50.032;21.978;2024-03-23T22:45:18;64251.03;;;-8.88;100.00
37132;BME280;23035;50.032;21.978;2024-03-23T22:50:22;64196.13;;;-9.43;100.00
37132;BME280;23035;50.032;21.978;2024-03-23T22:55:25;64172.13;;;-9.62;100.00
37132;BME280;23035;50.032;21.978;2024-03-23T23:00:29;64185.16;;;-9.51;100.00
37132;BME280;23035;50.032;21.978;2024-03-23T23:05:35;64160.66;;;-9.70;100.00
37132;BME280;23035;50.032;21.978;2024-03-23T23:10:45;64176.09;;;-9.63;100.00
37132;BME280;23035;50.032;21.978;2024-03-23T23:15:49;64204.00;;;-9.36;100.00
37132;BME280;23035;50.032;21.978;2024-03-23T23:20:55;64184.22;;;-9.50;100.00
37132;BME280;23035;50.032;21.978;2024-03-23T23:25:58;64178.19;;;-9.61;100.00
37132;BME280;23035;50.032;21.978;2024-03-23T23:31:03;64188.31;;;-9.48;100.00
37132;BME280;23035;50.032;21.978;2024-03-23T23:36:07;64195.72;;;-9.41;100.00
37132;BME280;23035;50.032;21.978;2024-03-23T23:41:10;64202.94;;;-9.37;100.00
37132;BME280;23035;50.032;21.978;2024-03-23T23:46:14;64190.19;;;-9.51;100.00
37132;BME280;23035;50.032;21.978;2024-03-23T23:51:18;64166.19;;;-9.70;100.00
37132;BME280;23035;50.032;21.978;2024-03-23T23:56:21;64140.91;;;-9.94;100.00
